sensor_id;sensor_type;location;lat;lon;timestamp;P1;durP1;ratioP1;P2;durP2;ratioP2
53245;SDS011;39569;51.090;-1.786;2023-06-14T00:01:13;13.20;;;11.02;;
53245;SDS011;39569;51.090;-1.786;2023-06-14T00:03:40;14.05;;;11.65;;
53245;SDS011;39569;51.090;-1.786;2023-06-14T00:06:07;12.75;;;11.50;;
53245;SDS011;39569;51.090;-1.786;2023-06-14T00:08:33;15.88;;;11.63;;
53245;SDS011;39569;51.090;-1.786;2023-06-14T00:11:01;14.70;;;11.25;;
53245;SDS011;39569;51.090;-1.786;2023-06-14T00:13:28;14.05;;;12.27;;
53245;SDS011;39569;51.090;-1.786;2023-06-14T00:15:55;13.88;;;12.10;;
53245;SDS011;39569;51.090;-1.786;2023-06-14T00:18:22;14.23;;;12.52;;
53245;SDS011;39569;51.090;-1.786;2023-06-14T00:20:54;14.07;;;11.25;;
53245;SDS011;39569;51.090;-1.786;2023-06-14T00:23:21;16.45;;;11.75;;
53245;SDS011;39569;51.090;-1.786;2023-06-14T00:25:48;12.02;;;10.77;;
53245;SDS011;39569;51.090;-1.786;2023-06-14T00:28:16;13.57;;;12.40;;
53245;SDS011;39569;51.090;-1.786;2023-06-14T00:30:43;12.27;;;10.90;;
53245;SDS011;39569;51.090;-1.786;2023-06-14T00:33:11;11.75;;;10.55;;
53245;SDS011;39569;51.090;-1.786;2023-06-14T00:35:38;14.50;;;12.18;;
53245;SDS011;39569;51.090;-1.786;2023-06-14T00:38:05;15.40;;;10.90;;
53245;SDS011;39569;51.090;-1.786;2023-06-14T00:40:31;13.50;;;10.32;;
53245;SDS011;39569;51.090;-1.786;2023-06-14T00:42:59;13.15;;;11.88;;
53245;SDS011;39569;51.090;-1.786;2023-06-14T00:45:28;11.68;;;10.70;;
53245;SDS011;39569;51.090;-1.786;2023-06-14T00:47:56;13.88;;;11.95;;
53245;SDS011;39569;51.090;-1.786;2023-06-14T00:50:23;10.57;;;9.63;;
53245;SDS011;39569;51.090;-1.786;2023-06-14T00:52:51;15.55;;;11.95;;
53245;SDS011;39569;51.090;-1.786;2023-06-14T00:55:18;13.18;;;11.85;;
53245;SDS011;39569;51.090;-1.786;2023-06-14T00:57:45;17.20;;;11.25;;
53245;SDS011;39569;51.090;-1.786;2023-06-14T01:00:12;13.90;;;12.43;;
53245;SDS011;39569;51.090;-1.786;2023-06-14T01:02:41;14.85;;;13.35;;
53245;SDS011;39569;51.090;-1.786;2023-06-14T01:05:08;12.00;;;10.98;;
53245;SDS011;39569;51.090;-1.786;2023-06-14T01:07:41;14.15;;;12.18;;
53245;SDS011;39569;51.090;-1.786;2023-06-14T01:10:24;12.93;;;11.63;;
53245;SDS011;39569;51.090;-1.786;2023-06-14T01:13:03;14.20;;;12.73;;
53245;SDS011;39569;51.090;-1.786;2023-06-14T01:15:33;13.52;;;11.55;;
53245;SDS011;39569;51.090;-1.786;2023-06-14T01:18:03;12.15;;;11.10;;
53245;SDS011;39569;51.090;-1.786;2023-06-14T01:20:31;12.57;;;10.60;;
53245;SDS011;39569;51.090;-1.786;2023-06-14T01:23:03;14.63;;;11.88;;
53245;SDS011;39569;51.090;-1.786;2023-06-14T01:25:29;12.38;;;11.38;;
53245;SDS011;39569;51.090;-1.786;2023-06-14T01:27:57;12.95;;;11.68;;
53245;SDS011;39569;51.090;-1.786;2023-06-14T01:30:26;12.35;;;11.15;;
53245;SDS011;39569;51.090;-1.786;2023-06-14T01:32:55;16.33;;;11.00;;
53245;SDS011;39569;51.090;-1.786;2023-06-14T01:35:23;17.30;;;11.70;;
53245;SDS011;39569;51.090;-1.786;2023-06-14T01:37:50;12.75;;;11.48;;
53245;SDS011;39569;51.090;-1.786;2023-06-14T01:40:19;12.38;;;11.20;;
53245;SDS011;39569;51.090;-1.786;2023-06-14T01:42:47;12.80;;;11.50;;
53245;SDS011;39569;51.090;-1.786;2023-06-14T01:45:16;16.38;;;11.65;;
53245;SDS011;39569;51.090;-1.786;2023-06-14T01:47:44;12.35;;;10.95;;
53245;SDS011;39569;51.090;-1.786;2023-06-14T01:50:13;12.40;;;11.35;;
53245;SDS011;39569;51.090;-1.786;2023-06-14T01:52:40;12.07;;;10.98;;
53245;SDS011;39569;51.090;-1.786;2023-06-14T01:55:07;15.80;;;11.48;;
53245;SDS011;39569;51.090;-1.786;2023-06-14T01:57:36;15.75;;;11.45;;
53245;SDS011;39569;51.090;-1.786;2023-06-14T02:00:03;13.68;;;10.80;;
53245;SDS011;39569;51.090;-1.786;2023-06-14T02:02:31;13.48;;;10.95;;
53245;SDS011;39569;51.090;-1.786;2023-06-14T02:04:58;13.30;;;11.30;;
53245;SDS011;39569;51.090;-1.786;2023-06-14T02:07:25;15.25;;;11.05;;
53245;SDS011;39569;51.090;-1.786;2023-06-14T02:09:52;15.20;;;12.15;;
53245;SDS011;39569;51.090;-1.786;2023-06-14T02:12:19;11.82;;;10.60;;
53245;SDS011;39569;51.090;-1.786;2023-06-14T02:14:47;22.25;;;10.77;;
53245;SDS011;39569;51.090;-1.786;2023-06-14T02:17:14;11.60;;;10.55;;
53245;SDS011;39569;51.090;-1.786;2023-06-14T02:19:41;12.07;;;10.93;;
53245;SDS011;39569;51.090;-1.786;2023-06-14T02:22:07;11.15;;;10.20;;
53245;SDS011;39569;51.090;-1.786;2023-06-14T02:24:34;14.13;;;9.75;;
53245;SDS011;39569;51.090;-1.786;2023-06-14T02:27:01;15.73;;;10.15;;
53245;SDS011;39569;51.090;-1.786;2023-06-14T02:29:28;11.65;;;10.10;;
53245;SDS011;39569;51.090;-1.786;2023-06-14T02:31:56;12.35;;;11.25;;
53245;SDS011;39569;51.090;-1.786;2023-06-14T02:34:23;12.30;;;11.10;;
53245;SDS011;39569;51.090;-1.786;2023-06-14T02:36:50;10.55;;;9.45;;
53245;SDS011;39569;51.090;-1.786;2023-06-14T02:39:17;16.63;;;10.85;;
53245;SDS011;39569;51.090;-1.786;2023-06-14T02:41:45;18.90;;;11.25;;
53245;SDS011;39569;51.090;-1.786;2023-06-14T02:44:13;15.45;;;12.30;;
53245;SDS011;39569;51.090;-1.786;2023-06-14T02:46:40;12.70;;;11.60;;
53245;SDS011;39569;51.090;-1.786;2023-06-14T02:49:10;15.05;;;11.95;;
53245;SDS011;39569;51.090;-1.786;2023-06-14T02:51:36;12.18;;;10.95;;
53245;SDS011;39569;51.090;-1.786;2023-06-14T02:54:03;13.40;;;12.18;;
53245;SDS011;39569;51.090;-1.786;2023-06-14T02:56:30;13.18;;;11.95;;
53245;SDS011;39569;51.090;-1.786;2023-06-14T02:58:57;13.35;;;12.05;;
53245;SDS011;39569;51.090;-1.786;2023-06-14T03:01:24;13.63;;;12.32;;
53245;SDS011;39569;51.090;-1.786;2023-06-14T03:03:58;13.32;;;7.28;;
53245;SDS011;39569;51.090;-1.786;2023-06-14T03:06:26;14.93;;;11.77;;
53245;SDS011;39569;51.090;-1.786;2023-06-14T03:08:54;12.48;;;11.25;;
53245;SDS011;39569;51.090;-1.786;2023-06-14T03:11:24;16.23;;;12.88;;
53245;SDS011;39569;51.090;-1.786;2023-06-14T03:13:51;11.90;;;10.48;;
53245;SDS011;39569;51.090;-1.786;2023-06-14T03:16:18;11.23;;;10.27;;
53245;SDS011;39569;51.090;-1.786;2023-06-14T03:18:47;11.18;;;10.20;;
53245;SDS011;39569;51.090;-1.786;2023-06-14T03:21:14;17.33;;;11.93;;
53245;SDS011;39569;51.090;-1.786;2023-06-14T03:23:43;11.65;;;10.48;;
53245;SDS011;39569;51.090;-1.786;2023-06-14T03:26:10;15.30;;;10.90;;
53245;SDS011;39569;51.090;-1.786;2023-06-14T03:28:38;16.92;;;11.63;;
53245;SDS011;39569;51.090;-1.786;2023-06-14T03:31:05;11.27;;;10.35;;
53245;SDS011;39569;51.090;-1.786;2023-06-14T03:33:32;14.40;;;11.07;;
53245;SDS011;39569;51.090;-1.786;2023-06-14T03:35:58;11.25;;;10.02;;
53245;SDS011;39569;51.090;-1.786;2023-06-14T03:38:25;12.38;;;9.88;;
53245;SDS011;39569;51.090;-1.786;2023-06-14T03:40:53;13.30;;;9.95;;
53245;SDS011;39569;51.090;-1.786;2023-06-14T03:43:20;11.98;;;10.82;;
53245;SDS011;39569;51.090;-1.786;2023-06-14T03:45:47;11.13;;;10.13;;
53245;SDS011;39569;51.090;-1.786;2023-06-14T03:48:14;12.60;;;10.15;;
53245;SDS011;39569;51.090;-1.786;2023-06-14T03:50:40;11.68;;;10.48;;
53245;SDS011;39569;51.090;-1.786;2023-06-14T03:53:08;20.25;;;11.43;;
53245;SDS011;39569;51.090;-1.786;2023-06-14T03:55:35;16.95;;;9.05;;
53245;SDS011;39569;51.090;-1.786;2023-06-14T03:58:04;10.63;;;9.75;;
53245;SDS011;39569;51.090;-1.786;2023-06-14T04:00:31;13.00;;;9.52;;
53245;SDS011;39569;51.090;-1.786;2023-06-14T04:02:58;13.52;;;10.60;;
53245;SDS011;39569;51.090;-1.786;2023-06-14T04:05:25;11.55;;;9.63;;
53245;SDS011;39569;51.090;-1.786;2023-06-14T04:07:52;10.38;;;9.40;;
53245;SDS011;39569;51.090;-1.786;2023-06-14T04:10:22;10.38;;;9.38;;
53245;SDS011;39569;51.090;-1.786;2023-06-14T04:12:48;10.10;;;9.07;;
53245;SDS011;39569;51.090;-1.786;2023-06-14T04:15:17;16.65;;;9.10;;
53245;SDS011;39569;51.090;-1.786;2023-06-14T04:17:44;8.75;;;8.05;;
53245;SDS011;39569;51.090;-1.786;2023-06-14T04:20:11;9.13;;;8.38;;
53245;SDS011;39569;51.090;-1.786;2023-06-14T04:22:37;16.75;;;8.70;;
53245;SDS011;39569;51.090;-1.786;2023-06-14T04:25:06;8.73;;;7.95;;
53245;SDS011;39569;51.090;-1.786;2023-06-14T04:27:33;12.82;;;8.88;;
53245;SDS011;39569;51.090;-1.786;2023-06-14T04:30:01;11.13;;;8.88;;
53245;SDS011;39569;51.090;-1.786;2023-06-14T04:32:30;14.00;;;9.20;;
53245;SDS011;39569;51.090;-1.786;2023-06-14T04:34:58;10.50;;;8.73;;
53245;SDS011;39569;51.090;-1.786;2023-06-14T04:37:27;17.10;;;8.55;;
53245;SDS011;39569;51.090;-1.786;2023-06-14T04:39:54;16.27;;;9.50;;
53245;SDS011;39569;51.090;-1.786;2023-06-14T04:42:21;11.93;;;9.15;;
53245;SDS011;39569;51.090;-1.786;2023-06-14T04:44:50;9.50;;;8.15;;
53245;SDS011;39569;51.090;-1.786;2023-06-14T04:47:20;10.98;;;9.98;;
53245;SDS011;39569;51.090;-1.786;2023-06-14T04:49:48;16.83;;;8.02;;
53245;SDS011;39569;51.090;-1.786;2023-06-14T04:52:16;11.73;;;7.32;;
53245;SDS011;39569;51.090;-1.786;2023-06-14T04:54:45;9.48;;;8.55;;
53245;SDS011;39569;51.090;-1.786;2023-06-14T04:57:12;9.45;;;7.97;;
53245;SDS011;39569;51.090;-1.786;2023-06-14T04:59:42;10.98;;;9.88;;
53245;SDS011;39569;51.090;-1.786;2023-06-14T05:02:09;10.23;;;9.00;;
53245;SDS011;39569;51.090;-1.786;2023-06-14T05:04:36;21.13;;;9.02;;
53245;SDS011;39569;51.090;-1.786;2023-06-14T05:07:07;13.50;;;8.95;;
53245;SDS011;39569;51.090;-1.786;2023-06-14T05:09:34;12.93;;;8.30;;
53245;SDS011;39569;51.090;-1.786;2023-06-14T05:12:01;10.18;;;8.98;;
53245;SDS011;39569;51.090;-1.786;2023-06-14T05:14:28;10.13;;;8.98;;
53245;SDS011;39569;51.090;-1.786;2023-06-14T05:16:54;10.88;;;8.57;;
53245;SDS011;39569;51.090;-1.786;2023-06-14T05:19:22;19.73;;;8.57;;
53245;SDS011;39569;51.090;-1.786;2023-06-14T05:21:49;10.48;;;8.68;;
53245;SDS011;39569;51.090;-1.786;2023-06-14T05:24:17;10.38;;;8.98;;
53245;SDS011;39569;51.090;-1.786;2023-06-14T05:26:44;8.77;;;7.88;;
53245;SDS011;39569;51.090;-1.786;2023-06-14T05:29:11;8.85;;;7.95;;
53245;SDS011;39569;51.090;-1.786;2023-06-14T05:31:37;9.32;;;8.30;;
53245;SDS011;39569;51.090;-1.786;2023-06-14T05:34:04;11.93;;;8.80;;
53245;SDS011;39569;51.090;-1.786;2023-06-14T05:36:31;13.48;;;8.35;;
53245;SDS011;39569;51.090;-1.786;2023-06-14T05:38:58;11.40;;;8.15;;
53245;SDS011;39569;51.090;-1.786;2023-06-14T05:41:26;11.73;;;8.00;;
53245;SDS011;39569;51.090;-1.786;2023-06-14T05:43:53;10.75;;;8.13;;
53245;SDS011;39569;51.090;-1.786;2023-06-14T05:46:21;26.20;;;8.82;;
53245;SDS011;39569;51.090;-1.786;2023-06-14T05:48:50;10.00;;;7.93;;
53245;SDS011;39569;51.090;-1.786;2023-06-14T05:51:17;28.20;;;9.32;;
53245;SDS011;39569;51.090;-1.786;2023-06-14T05:53:44;12.13;;;8.10;;
53245;SDS011;39569;51.090;-1.786;2023-06-14T05:56:11;14.77;;;8.35;;
53245;SDS011;39569;51.090;-1.786;2023-06-14T05:58:39;12.30;;;9.20;;
53245;SDS011;39569;51.090;-1.786;2023-06-14T06:01:06;19.35;;;7.85;;
53245;SDS011;39569;51.090;-1.786;2023-06-14T06:03:33;9.57;;;7.05;;
53245;SDS011;39569;51.090;-1.786;2023-06-14T06:06:00;15.82;;;8.18;;
53245;SDS011;39569;51.090;-1.786;2023-06-14T06:08:28;13.80;;;7.30;;
53245;SDS011;39569;51.090;-1.786;2023-06-14T06:10:54;10.00;;;6.88;;
53245;SDS011;39569;51.090;-1.786;2023-06-14T06:13:21;10.10;;;7.55;;
53245;SDS011;39569;51.090;-1.786;2023-06-14T06:15:50;8.48;;;7.18;;
53245;SDS011;39569;51.090;-1.786;2023-06-14T06:18:16;12.20;;;7.60;;
53245;SDS011;39569;51.090;-1.786;2023-06-14T06:20:43;11.43;;;7.40;;
53245;SDS011;39569;51.090;-1.786;2023-06-14T06:23:10;8.27;;;7.15;;
53245;SDS011;39569;51.090;-1.786;2023-06-14T06:25:37;8.85;;;6.70;;
53245;SDS011;39569;51.090;-1.786;2023-06-14T06:28:03;18.58;;;8.02;;
53245;SDS011;39569;51.090;-1.786;2023-06-14T06:30:30;7.72;;;6.80;;
53245;SDS011;39569;51.090;-1.786;2023-06-14T06:32:58;11.93;;;7.28;;
53245;SDS011;39569;51.090;-1.786;2023-06-14T06:35:25;13.55;;;6.75;;
53245;SDS011;39569;51.090;-1.786;2023-06-14T06:37:52;11.90;;;6.95;;
53245;SDS011;39569;51.090;-1.786;2023-06-14T06:40:19;10.35;;;7.05;;
53245;SDS011;39569;51.090;-1.786;2023-06-14T06:42:45;14.85;;;7.50;;
53245;SDS011;39569;51.090;-1.786;2023-06-14T06:45:12;11.57;;;7.93;;
53245;SDS011;39569;51.090;-1.786;2023-06-14T06:47:39;14.50;;;7.40;;
53245;SDS011;39569;51.090;-1.786;2023-06-14T06:50:07;10.23;;;7.07;;
53245;SDS011;39569;51.090;-1.786;2023-06-14T06:52:34;7.13;;;6.32;;
53245;SDS011;39569;51.090;-1.786;2023-06-14T06:55:01;8.68;;;6.72;;
53245;SDS011;39569;51.090;-1.786;2023-06-14T06:57:28;10.02;;;7.28;;
53245;SDS011;39569;51.090;-1.786;2023-06-14T06:59:55;10.38;;;6.10;;
53245;SDS011;39569;51.090;-1.786;2023-06-14T07:02:22;8.60;;;5.90;;
53245;SDS011;39569;51.090;-1.786;2023-06-14T07:04:48;8.63;;;7.70;;
53245;SDS011;39569;51.090;-1.786;2023-06-14T07:07:17;14.90;;;6.45;;
53245;SDS011;39569;51.090;-1.786;2023-06-14T07:09:44;12.50;;;6.75;;
53245;SDS011;39569;51.090;-1.786;2023-06-14T07:12:11;10.57;;;6.20;;
53245;SDS011;39569;51.090;-1.786;2023-06-14T07:14:38;19.35;;;6.00;;
53245;SDS011;39569;51.090;-1.786;2023-06-14T07:17:05;13.00;;;5.40;;
53245;SDS011;39569;51.090;-1.786;2023-06-14T07:19:31;10.55;;;5.70;;
53245;SDS011;39569;51.090;-1.786;2023-06-14T07:21:58;14.45;;;5.68;;
53245;SDS011;39569;51.090;-1.786;2023-06-14T07:24:26;14.52;;;5.80;;
53245;SDS011;39569;51.090;-1.786;2023-06-14T07:26:54;12.30;;;5.78;;
53245;SDS011;39569;51.090;-1.786;2023-06-14T07:29:21;8.40;;;5.68;;
53245;SDS011;39569;51.090;-1.786;2023-06-14T07:31:48;7.13;;;5.10;;
53245;SDS011;39569;51.090;-1.786;2023-06-14T07:34:15;6.28;;;5.60;;
53245;SDS011;39569;51.090;-1.786;2023-06-14T07:36:41;7.88;;;4.68;;
53245;SDS011;39569;51.090;-1.786;2023-06-14T07:39:09;14.45;;;5.63;;
53245;SDS011;39569;51.090;-1.786;2023-06-14T07:41:37;17.60;;;5.70;;
53245;SDS011;39569;51.090;-1.786;2023-06-14T07:44:04;9.27;;;5.47;;
53245;SDS011;39569;51.090;-1.786;2023-06-14T07:46:31;10.93;;;5.68;;
53245;SDS011;39569;51.090;-1.786;2023-06-14T07:48:59;8.02;;;5.22;;
53245;SDS011;39569;51.090;-1.786;2023-06-14T07:51:26;5.82;;;4.95;;
53245;SDS011;39569;51.090;-1.786;2023-06-14T07:53:53;5.72;;;5.20;;
53245;SDS011;39569;51.090;-1.786;2023-06-14T07:56:20;10.90;;;5.20;;
53245;SDS011;39569;51.090;-1.786;2023-06-14T07:58:48;6.68;;;5.07;;
53245;SDS011;39569;51.090;-1.786;2023-06-14T08:01:15;4.55;;;3.95;;
53245;SDS011;39569;51.090;-1.786;2023-06-14T08:03:42;6.97;;;5.45;;
53245;SDS011;39569;51.090;-1.786;2023-06-14T08:06:08;11.73;;;4.80;;
53245;SDS011;39569;51.090;-1.786;2023-06-14T08:08:35;8.48;;;4.93;;
53245;SDS011;39569;51.090;-1.786;2023-06-14T08:11:02;7.07;;;5.35;;
53245;SDS011;39569;51.090;-1.786;2023-06-14T08:13:29;5.28;;;4.45;;
53245;SDS011;39569;51.090;-1.786;2023-06-14T08:15:57;7.07;;;4.63;;
53245;SDS011;39569;51.090;-1.786;2023-06-14T08:18:26;5.32;;;4.30;;
53245;SDS011;39569;51.090;-1.786;2023-06-14T08:20:53;8.32;;;4.13;;
53245;SDS011;39569;51.090;-1.786;2023-06-14T08:23:19;5.82;;;4.43;;
53245;SDS011;39569;51.090;-1.786;2023-06-14T08:25:47;11.50;;;4.13;;
53245;SDS011;39569;51.090;-1.786;2023-06-14T08:28:13;11.52;;;4.40;;
53245;SDS011;39569;51.090;-1.786;2023-06-14T08:30:41;6.93;;;4.82;;
53245;SDS011;39569;51.090;-1.786;2023-06-14T08:33:10;7.03;;;4.70;;
53245;SDS011;39569;51.090;-1.786;2023-06-14T08:35:36;9.07;;;4.63;;
53245;SDS011;39569;51.090;-1.786;2023-06-14T08:38:04;12.85;;;4.93;;
53245;SDS011;39569;51.090;-1.786;2023-06-14T08:40:31;4.53;;;4.15;;
53245;SDS011;39569;51.090;-1.786;2023-06-14T08:43:03;9.82;;;4.85;;
53245;SDS011;39569;51.090;-1.786;2023-06-14T08:45:30;4.78;;;3.20;;
53245;SDS011;39569;51.090;-1.786;2023-06-14T08:47:57;8.07;;;4.38;;
53245;SDS011;39569;51.090;-1.786;2023-06-14T08:50:26;7.55;;;4.47;;
53245;SDS011;39569;51.090;-1.786;2023-06-14T08:52:55;11.10;;;4.30;;
53245;SDS011;39569;51.090;-1.786;2023-06-14T08:55:25;5.90;;;4.40;;
53245;SDS011;39569;51.090;-1.786;2023-06-14T08:57:54;13.13;;;3.88;;
53245;SDS011;39569;51.090;-1.786;2023-06-14T09:00:22;7.80;;;3.90;;
53245;SDS011;39569;51.090;-1.786;2023-06-14T09:02:50;9.00;;;4.15;;
53245;SDS011;39569;51.090;-1.786;2023-06-14T09:05:23;9.02;;;3.15;;
53245;SDS011;39569;51.090;-1.786;2023-06-14T09:07:51;5.43;;;3.75;;
53245;SDS011;39569;51.090;-1.786;2023-06-14T09:10:21;5.95;;;4.07;;
53245;SDS011;39569;51.090;-1.786;2023-06-14T09:12:48;5.55;;;4.03;;
53245;SDS011;39569;51.090;-1.786;2023-06-14T09:15:15;6.32;;;4.57;;
53245;SDS011;39569;51.090;-1.786;2023-06-14T09:17:42;8.85;;;3.92;;
53245;SDS011;39569;51.090;-1.786;2023-06-14T09:20:09;10.90;;;4.18;;
53245;SDS011;39569;51.090;-1.786;2023-06-14T09:22:38;5.47;;;4.00;;
53245;SDS011;39569;51.090;-1.786;2023-06-14T09:25:08;7.85;;;4.63;;
53245;SDS011;39569;51.090;-1.786;2023-06-14T09:27:35;4.78;;;4.25;;
53245;SDS011;39569;51.090;-1.786;2023-06-14T09:30:05;11.85;;;4.18;;
53245;SDS011;39569;51.090;-1.786;2023-06-14T09:32:36;4.70;;;3.65;;
53245;SDS011;39569;51.090;-1.786;2023-06-14T09:35:04;4.43;;;4.07;;
53245;SDS011;39569;51.090;-1.786;2023-06-14T09:37:32;9.13;;;4.65;;
53245;SDS011;39569;51.090;-1.786;2023-06-14T09:39:59;13.30;;;4.93;;
53245;SDS011;39569;51.090;-1.786;2023-06-14T09:42:27;6.97;;;4.97;;
53245;SDS011;39569;51.090;-1.786;2023-06-14T09:44:55;6.03;;;4.88;;
53245;SDS011;39569;51.090;-1.786;2023-06-14T09:47:23;12.20;;;5.10;;
53245;SDS011;39569;51.090;-1.786;2023-06-14T09:49:50;5.15;;;4.50;;
53245;SDS011;39569;51.090;-1.786;2023-06-14T09:52:20;5.55;;;4.57;;
53245;SDS011;39569;51.090;-1.786;2023-06-14T09:54:47;8.68;;;4.45;;
53245;SDS011;39569;51.090;-1.786;2023-06-14T09:57:15;6.45;;;4.30;;
53245;SDS011;39569;51.090;-1.786;2023-06-14T09:59:46;8.32;;;4.50;;
53245;SDS011;39569;51.090;-1.786;2023-06-14T10:02:18;7.35;;;4.50;;
53245;SDS011;39569;51.090;-1.786;2023-06-14T10:04:53;6.35;;;4.55;;
53245;SDS011;39569;51.090;-1.786;2023-06-14T10:09:55;9.88;;;4.28;;
53245;SDS011;39569;51.090;-1.786;2023-06-14T10:12:22;5.18;;;4.25;;
53245;SDS011;39569;51.090;-1.786;2023-06-14T10:14:51;5.18;;;3.90;;
53245;SDS011;39569;51.090;-1.786;2023-06-14T10:17:24;5.95;;;5.45;;
53245;SDS011;39569;51.090;-1.786;2023-06-14T10:20:02;7.57;;;4.65;;
53245;SDS011;39569;51.090;-1.786;2023-06-14T10:22:42;3.97;;;3.58;;
53245;SDS011;39569;51.090;-1.786;2023-06-14T10:25:25;5.50;;;4.83;;
53245;SDS011;39569;51.090;-1.786;2023-06-14T10:28:02;11.18;;;4.97;;
53245;SDS011;39569;51.090;-1.786;2023-06-14T10:30:32;4.53;;;3.83;;
53245;SDS011;39569;51.090;-1.786;2023-06-14T10:33:04;13.63;;;5.15;;
53245;SDS011;39569;51.090;-1.786;2023-06-14T10:35:32;4.28;;;3.97;;
53245;SDS011;39569;51.090;-1.786;2023-06-14T10:38:08;5.95;;;4.93;;
53245;SDS011;39569;51.090;-1.786;2023-06-14T10:40:36;4.80;;;4.40;;
53245;SDS011;39569;51.090;-1.786;2023-06-14T10:48:43;4.88;;;4.35;;
53245;SDS011;39569;51.090;-1.786;2023-06-14T10:51:17;5.90;;;5.00;;
53245;SDS011;39569;51.090;-1.786;2023-06-14T10:53:46;7.45;;;4.95;;
53245;SDS011;39569;51.090;-1.786;2023-06-14T10:56:24;11.10;;;5.88;;
53245;SDS011;39569;51.090;-1.786;2023-06-14T10:58:53;5.90;;;5.22;;
53245;SDS011;39569;51.090;-1.786;2023-06-14T11:01:27;5.20;;;4.70;;
53245;SDS011;39569;51.090;-1.786;2023-06-14T11:04:12;7.70;;;5.43;;
53245;SDS011;39569;51.090;-1.786;2023-06-14T11:06:44;6.03;;;5.22;;
53245;SDS011;39569;51.090;-1.786;2023-06-14T11:12:13;9.13;;;5.68;;
53245;SDS011;39569;51.090;-1.786;2023-06-14T11:14:41;10.27;;;4.90;;
53245;SDS011;39569;51.090;-1.786;2023-06-14T11:17:13;9.07;;;5.03;;
53245;SDS011;39569;51.090;-1.786;2023-06-14T11:19:40;8.82;;;4.80;;
53245;SDS011;39569;51.090;-1.786;2023-06-14T11:22:07;8.25;;;5.43;;
53245;SDS011;39569;51.090;-1.786;2023-06-14T11:24:34;4.95;;;4.35;;
53245;SDS011;39569;51.090;-1.786;2023-06-14T11:27:01;5.80;;;5.25;;
53245;SDS011;39569;51.090;-1.786;2023-06-14T11:29:29;6.10;;;5.18;;
53245;SDS011;39569;51.090;-1.786;2023-06-14T11:31:56;5.68;;;5.18;;
53245;SDS011;39569;51.090;-1.786;2023-06-14T11:34:25;7.63;;;4.63;;
53245;SDS011;39569;51.090;-1.786;2023-06-14T11:36:52;6.78;;;5.03;;
53245;SDS011;39569;51.090;-1.786;2023-06-14T11:39:23;5.55;;;5.03;;
53245;SDS011;39569;51.090;-1.786;2023-06-14T11:41:52;4.90;;;4.45;;
53245;SDS011;39569;51.090;-1.786;2023-06-14T11:44:20;8.27;;;4.18;;
53245;SDS011;39569;51.090;-1.786;2023-06-14T11:46:47;8.43;;;5.82;;
53245;SDS011;39569;51.090;-1.786;2023-06-14T11:49:13;5.50;;;4.85;;
53245;SDS011;39569;51.090;-1.786;2023-06-14T11:51:42;9.43;;;5.88;;
53245;SDS011;39569;51.090;-1.786;2023-06-14T11:54:09;5.35;;;4.90;;
53245;SDS011;39569;51.090;-1.786;2023-06-14T11:56:36;6.25;;;4.72;;
53245;SDS011;39569;51.090;-1.786;2023-06-14T11:59:03;8.07;;;5.45;;
53245;SDS011;39569;51.090;-1.786;2023-06-14T12:01:30;7.05;;;5.72;;
53245;SDS011;39569;51.090;-1.786;2023-06-14T12:03:58;6.28;;;5.05;;
53245;SDS011;39569;51.090;-1.786;2023-06-14T12:06:26;11.68;;;6.10;;
53245;SDS011;39569;51.090;-1.786;2023-06-14T12:08:59;7.13;;;4.88;;
53245;SDS011;39569;51.090;-1.786;2023-06-14T12:11:31;31.67;;;6.45;;
53245;SDS011;39569;51.090;-1.786;2023-06-14T12:13:59;6.03;;;5.40;;
53245;SDS011;39569;51.090;-1.786;2023-06-14T12:16:30;5.75;;;5.25;;
53245;SDS011;39569;51.090;-1.786;2023-06-14T12:19:00;7.00;;;5.38;;
53245;SDS011;39569;51.090;-1.786;2023-06-14T12:21:28;14.05;;;6.20;;
53245;SDS011;39569;51.090;-1.786;2023-06-14T12:23:55;6.70;;;5.60;;
53245;SDS011;39569;51.090;-1.786;2023-06-14T12:26:23;7.05;;;6.25;;
53245;SDS011;39569;51.090;-1.786;2023-06-14T12:28:52;9.35;;;5.38;;
53245;SDS011;39569;51.090;-1.786;2023-06-14T12:31:18;14.95;;;5.45;;
53245;SDS011;39569;51.090;-1.786;2023-06-14T12:33:46;7.28;;;4.93;;
53245;SDS011;39569;51.090;-1.786;2023-06-14T12:36:14;6.07;;;5.35;;
53245;SDS011;39569;51.090;-1.786;2023-06-14T12:38:41;10.55;;;6.07;;
53245;SDS011;39569;51.090;-1.786;2023-06-14T12:41:08;8.63;;;6.10;;
53245;SDS011;39569;51.090;-1.786;2023-06-14T12:43:37;15.05;;;6.82;;
53245;SDS011;39569;51.090;-1.786;2023-06-14T12:46:03;6.07;;;5.32;;
53245;SDS011;39569;51.090;-1.786;2023-06-14T12:48:31;25.05;;;6.15;;
53245;SDS011;39569;51.090;-1.786;2023-06-14T12:50:59;10.32;;;5.88;;
53245;SDS011;39569;51.090;-1.786;2023-06-14T12:53:26;7.47;;;6.35;;
53245;SDS011;39569;51.090;-1.786;2023-06-14T12:55:52;5.78;;;5.20;;
53245;SDS011;39569;51.090;-1.786;2023-06-14T12:58:19;7.32;;;5.93;;
53245;SDS011;39569;51.090;-1.786;2023-06-14T13:00:47;8.45;;;5.57;;
53245;SDS011;39569;51.090;-1.786;2023-06-14T13:03:14;15.52;;;5.50;;
53245;SDS011;39569;51.090;-1.786;2023-06-14T13:05:41;5.25;;;4.75;;
53245;SDS011;39569;51.090;-1.786;2023-06-14T13:08:08;6.38;;;5.50;;
53245;SDS011;39569;51.090;-1.786;2023-06-14T13:10:35;6.22;;;5.65;;
53245;SDS011;39569;51.090;-1.786;2023-06-14T13:13:01;9.32;;;6.32;;
53245;SDS011;39569;51.090;-1.786;2023-06-14T13:15:29;7.47;;;4.63;;
53245;SDS011;39569;51.090;-1.786;2023-06-14T13:17:57;9.10;;;5.95;;
53245;SDS011;39569;51.090;-1.786;2023-06-14T13:20:24;8.18;;;5.38;;
53245;SDS011;39569;51.090;-1.786;2023-06-14T13:22:51;8.02;;;6.18;;
53245;SDS011;39569;51.090;-1.786;2023-06-14T13:25:17;9.73;;;6.57;;
53245;SDS011;39569;51.090;-1.786;2023-06-14T13:27:44;6.20;;;5.20;;
53245;SDS011;39569;51.090;-1.786;2023-06-14T13:30:11;6.13;;;5.53;;
53245;SDS011;39569;51.090;-1.786;2023-06-14T13:32:39;8.90;;;5.55;;
53245;SDS011;39569;51.090;-1.786;2023-06-14T13:35:07;10.23;;;6.25;;
53245;SDS011;39569;51.090;-1.786;2023-06-14T13:37:34;9.80;;;6.00;;
53245;SDS011;39569;51.090;-1.786;2023-06-14T13:40:01;8.90;;;5.82;;
53245;SDS011;39569;51.090;-1.786;2023-06-14T13:42:27;8.18;;;6.60;;
53245;SDS011;39569;51.090;-1.786;2023-06-14T13:44:56;5.82;;;5.32;;
53245;SDS011;39569;51.090;-1.786;2023-06-14T13:47:23;6.07;;;5.47;;
53245;SDS011;39569;51.090;-1.786;2023-06-14T13:49:50;5.65;;;5.25;;
53245;SDS011;39569;51.090;-1.786;2023-06-14T13:52:18;7.55;;;6.78;;
53245;SDS011;39569;51.090;-1.786;2023-06-14T13:54:45;7.30;;;5.85;;
53245;SDS011;39569;51.090;-1.786;2023-06-14T13:57:12;9.32;;;6.88;;
53245;SDS011;39569;51.090;-1.786;2023-06-14T13:59:39;8.52;;;5.95;;
53245;SDS011;39569;51.090;-1.786;2023-06-14T14:02:06;21.67;;;6.90;;
53245;SDS011;39569;51.090;-1.786;2023-06-14T14:04:33;7.40;;;6.40;;
53245;SDS011;39569;51.090;-1.786;2023-06-14T14:07:01;12.90;;;6.15;;
53245;SDS011;39569;51.090;-1.786;2023-06-14T14:09:29;7.80;;;5.85;;
53245;SDS011;39569;51.090;-1.786;2023-06-14T14:11:55;6.28;;;5.32;;
53245;SDS011;39569;51.090;-1.786;2023-06-14T14:14:22;6.78;;;6.07;;
53245;SDS011;39569;51.090;-1.786;2023-06-14T14:16:49;6.95;;;6.10;;
53245;SDS011;39569;51.090;-1.786;2023-06-14T14:19:18;6.43;;;5.88;;
53245;SDS011;39569;51.090;-1.786;2023-06-14T14:21:45;6.68;;;5.38;;
53245;SDS011;39569;51.090;-1.786;2023-06-14T14:24:12;7.90;;;7.00;;
53245;SDS011;39569;51.090;-1.786;2023-06-14T14:26:40;6.90;;;6.22;;
53245;SDS011;39569;51.090;-1.786;2023-06-14T14:29:06;8.95;;;6.15;;
53245;SDS011;39569;51.090;-1.786;2023-06-14T14:31:33;8.30;;;6.60;;
53245;SDS011;39569;51.090;-1.786;2023-06-14T14:34:00;8.20;;;6.60;;
53245;SDS011;39569;51.090;-1.786;2023-06-14T14:36:27;7.63;;;6.18;;
53245;SDS011;39569;51.090;-1.786;2023-06-14T14:38:54;9.23;;;5.15;;